createdAt,value
2023-05-22T00:00:20.722Z,69.26
2023-05-22T00:02:52.822Z,69.17
2023-05-22T00:05:24.722Z,69.07
2023-05-22T00:07:53.921Z,69.38
2023-05-22T00:10:20.789Z,69.20
2023-05-22T00:12:49.826Z,69.56
2023-05-22T00:15:21.441Z,69.71
2023-05-22T00:17:54.077Z,69.59
2023-05-22T00:20:23.654Z,70.08
2023-05-22T00:22:53.873Z,70.89
2023-05-22T00:25:23.033Z,71.38
2023-05-22T00:27:49.821Z,71.07
2023-05-22T00:30:22.003Z,71.40
2023-05-22T00:32:51.336Z,70.89
2023-05-22T00:35:25.379Z,70.83
2023-05-22T00:37:52.182Z,71.07
2023-05-22T00:40:24.051Z,70.95
2023-05-22T00:42:53.331Z,71.69
2023-05-22T00:45:20.172Z,71.10
2023-05-22T00:47:49.220Z,70.88
2023-05-22T00:50:21.496Z,71.03
2023-05-22T00:52:50.629Z,70.98
2023-05-22T00:55:17.459Z,71.09
2023-05-22T00:57:52.175Z,71.17
2023-05-22T01:00:23.883Z,71.17
2023-05-22T01:02:53.822Z,71.14
2023-05-22T01:05:22.801Z,71.27
2023-05-22T01:07:49.653Z,71.23
2023-05-22T01:10:22.237Z,71.56
2023-05-22T01:13:07.120Z,71.51
2023-05-22T01:15:55.912Z,71.71
2023-05-22T01:18:31.499Z,71.87
2023-05-22T01:21:10.444Z,72.12
2023-05-22T01:23:40.377Z,71.93
2023-05-22T01:26:32.037Z,72.03
2023-05-22T01:29:22.446Z,72.30
2023-05-22T01:31:50.595Z,72.00
2023-05-22T01:34:26.886Z,72.20
2023-05-22T01:37:00.059Z,72.11
2023-05-22T01:39:30.942Z,72.02
2023-05-22T01:41:58.367Z,72.30
2023-05-22T01:44:27.699Z,72.30
2023-05-22T01:47:00.716Z,72.26
2023-05-22T01:49:31.873Z,72.30
2023-05-22T01:52:13.110Z,72.55
2023-05-22T01:54:45.706Z,72.29
2023-05-22T01:58:00.247Z,73.20
2023-05-22T02:00:28.456Z,72.72
2023-05-22T02:03:12.210Z,72.84
2023-05-22T02:05:46.083Z,72.87
2023-05-22T02:08:14.600Z,72.75
2023-05-22T02:10:48.800Z,72.72
2023-05-22T02:13:18.431Z,72.70
2023-05-22T02:15:48.058Z,73.06
2023-05-22T02:18:19.720Z,73.11
2023-05-22T02:20:47.094Z,73.02
2023-05-22T02:23:18.775Z,72.90
2023-05-22T02:25:48.009Z,73.04
2023-05-22T02:28:15.109Z,73.21
2023-05-22T02:30:46.164Z,73.19
2023-05-22T02:33:18.155Z,73.31
2023-05-22T02:35:54.732Z,73.28
2023-05-22T02:38:21.559Z,73.33
2023-05-22T02:40:51.843Z,73.15
2023-05-22T02:43:28.584Z,73.22
2023-05-22T02:45:57.871Z,73.22
2023-05-22T02:48:29.617Z,73.28
2023-05-22T02:50:58.837Z,73.22
2023-05-22T02:53:28.267Z,73.20
2023-05-22T02:55:59.175Z,73.38
2023-05-22T02:58:26.110Z,73.40
2023-05-22T03:00:55.811Z,73.45
2023-05-22T03:03:25.470Z,73.28
2023-05-22T03:06:00.244Z,73.32
2023-05-22T03:08:28.541Z,73.70
2023-05-22T03:11:02.004Z,73.36
2023-05-22T03:13:28.832Z,73.43
2023-05-22T03:16:02.726Z,74.08
2023-05-22T03:18:35.224Z,74.64
2023-05-22T03:21:04.601Z,74.59
2023-05-22T03:23:34.005Z,74.49
2023-05-22T03:26:03.097Z,74.37
2023-05-22T03:28:39.625Z,74.40
2023-05-22T03:31:09.578Z,74.30
2023-05-22T03:33:55.707Z,74.24
2023-05-22T03:36:27.469Z,74.11
2023-05-22T03:38:54.560Z,74.14
2023-05-22T03:41:23.791Z,74.20
2023-05-22T03:43:53.436Z,74.28
2023-05-22T03:46:26.731Z,74.16
2023-05-22T03:48:58.381Z,74.28
2023-05-22T03:51:27.662Z,74.34
2023-05-22T03:53:54.500Z,74.44
2023-05-22T03:56:23.833Z,74.68
2023-05-22T03:58:50.697Z,74.35
2023-05-22T04:01:22.543Z,74.43
2023-05-22T04:03:51.752Z,74.82
2023-05-22T04:06:21.961Z,74.75
2023-05-22T04:08:56.244Z,74.59
2023-05-22T04:11:23.994Z,74.83
2023-05-22T04:13:51.282Z,74.67
2023-05-22T04:16:23.623Z,74.62
2023-05-22T04:18:50.700Z,74.71
2023-05-22T04:21:23.974Z,74.90
2023-05-22T04:23:50.988Z,74.92
2023-05-22T04:26:21.077Z,74.92
2023-05-22T04:28:48.012Z,75.04
2023-05-22T04:31:17.270Z,74.97
2023-05-22T04:33:48.487Z,75.09
2023-05-22T04:36:22.558Z,75.25
2023-05-22T04:38:50.532Z,75.21
2023-05-22T04:41:22.716Z,75.51
2023-05-22T04:43:54.739Z,75.44
2023-05-22T04:46:23.918Z,75.33
2023-05-22T04:48:53.025Z,75.33
2023-05-22T04:51:23.142Z,75.30
2023-05-22T04:53:52.215Z,75.26
2023-05-22T04:56:35.237Z,75.76
2023-05-22T04:59:09.584Z,75.82
2023-05-22T05:01:39.043Z,75.47
2023-05-22T05:04:08.321Z,75.45
2023-05-22T05:06:36.006Z,75.34
2023-05-22T05:09:08.512Z,75.74
2023-05-22T05:11:37.555Z,75.55
2023-05-22T05:14:09.173Z,75.40
2023-05-22T05:16:36.299Z,75.01
2023-05-22T05:19:04.187Z,74.97
2023-05-22T05:21:36.121Z,74.84
2023-05-22T05:24:06.566Z,74.46
2023-05-22T05:26:36.368Z,74.18
2023-05-22T05:29:08.190Z,74.18
2023-05-22T05:31:42.994Z,74.07
2023-05-22T05:34:34.292Z,73.41
2023-05-22T05:37:05.838Z,73.27
2023-05-22T05:39:36.367Z,73.04
2023-05-22T05:42:05.869Z,73.13
2023-05-22T05:44:35.271Z,73.34
2023-05-22T05:47:12.521Z,73.07
2023-05-22T05:49:40.162Z,73.44
2023-05-22T05:52:08.267Z,73.26
2023-05-22T05:54:38.893Z,73.26
2023-05-22T05:57:14.734Z,73.21
2023-05-22T05:59:43.808Z,73.35
2023-05-22T06:02:29.461Z,73.69
2023-05-22T06:04:59.223Z,73.42
2023-05-22T06:07:30.447Z,72.71
2023-05-22T06:10:00.400Z,72.67
2023-05-22T06:12:41.452Z,73.07
2023-05-22T06:15:09.358Z,72.36
2023-05-22T06:17:37.705Z,71.58
2023-05-22T06:20:09.158Z,71.09
2023-05-22T06:22:39.840Z,71.37
2023-05-22T06:25:12.754Z,71.55
2023-05-22T06:27:39.630Z,71.61
2023-05-22T06:30:10.034Z,71.55
2023-05-22T06:32:41.825Z,70.24
2023-05-22T06:35:12.053Z,70.33
2023-05-22T06:37:45.240Z,69.62
2023-05-22T06:40:15.041Z,69.84
2023-05-22T06:42:53.402Z,69.01
2023-05-22T06:45:31.667Z,68.87
2023-05-22T06:48:21.498Z,68.23
2023-05-22T06:51:04.460Z,67.92
2023-05-22T06:53:34.082Z,68.40
2023-05-22T06:56:08.158Z,68.20
2023-05-22T06:59:01.912Z,67.43
2023-05-22T07:02:03.386Z,67.60
2023-05-22T07:04:45.294Z,68.38
2023-05-22T07:07:22.498Z,68.21
2023-05-22T07:09:57.494Z,67.67
2023-05-22T07:12:32.794Z,67.41
2023-05-22T07:15:02.040Z,67.40
2023-05-22T07:17:31.994Z,66.92
2023-05-22T07:20:02.048Z,67.00
2023-05-22T07:22:31.075Z,66.58
2023-05-22T07:25:00.257Z,66.08
2023-05-22T07:27:34.471Z,65.75
2023-05-22T07:30:02.635Z,66.20
2023-05-22T07:32:35.039Z,66.68
2023-05-22T07:35:05.020Z,66.08
2023-05-22T07:37:36.169Z,66.02
2023-05-22T07:40:05.478Z,66.29
2023-05-22T07:42:38.455Z,66.35
2023-05-22T07:45:11.949Z,66.81
2023-05-22T07:47:41.618Z,67.08
2023-05-22T07:50:09.284Z,66.63
2023-05-22T07:52:44.294Z,66.64
2023-05-22T07:55:14.208Z,66.67
2023-05-22T07:57:44.654Z,67.08
2023-05-22T08:00:23.680Z,66.55
2023-05-22T08:02:57.746Z,66.66
2023-05-22T08:05:29.588Z,66.25
2023-05-22T08:07:59.030Z,66.26
2023-05-22T08:10:28.035Z,66.39
2023-05-22T08:13:06.230Z,66.38
2023-05-22T08:15:38.035Z,66.60
2023-05-22T08:18:04.870Z,66.41
2023-05-22T08:20:34.640Z,66.31
2023-05-22T08:23:04.105Z,66.00
2023-05-22T08:25:38.100Z,66.30
2023-05-22T08:28:09.796Z,66.16
2023-05-22T08:30:39.362Z,66.51
2023-05-22T08:33:08.477Z,65.61
2023-05-22T08:35:35.454Z,65.74
2023-05-22T08:38:05.009Z,66.23
2023-05-22T08:40:42.565Z,66.05
2023-05-22T08:43:14.004Z,65.28
2023-05-22T08:45:42.792Z,65.42
2023-05-22T08:48:16.710Z,66.35
2023-05-22T08:50:44.705Z,65.34
2023-05-22T08:53:18.635Z,65.66
2023-05-22T08:55:45.935Z,65.54
2023-05-22T08:58:18.858Z,65.21
2023-05-22T09:00:48.497Z,65.62
2023-05-22T09:03:21.833Z,64.79
2023-05-22T09:05:49.634Z,65.18
2023-05-22T09:08:20.296Z,65.03
2023-05-22T09:10:47.689Z,65.25
2023-05-22T09:13:24.751Z,64.48
2023-05-22T09:15:59.178Z,64.63
2023-05-22T09:18:32.252Z,65.08
2023-05-22T09:20:59.737Z,65.07
2023-05-22T09:23:32.456Z,65.56
2023-05-22T09:26:01.055Z,63.95
2023-05-22T09:28:34.550Z,63.58
2023-05-22T09:31:07.354Z,63.94
2023-05-22T09:33:41.468Z,64.40
2023-05-22T09:36:13.710Z,63.50
2023-05-22T09:38:45.329Z,64.89
2023-05-22T09:41:20.605Z,64.59
2023-05-22T09:43:54.754Z,63.40
2023-05-22T09:46:22.238Z,63.92
2023-05-22T09:48:59.558Z,63.59
2023-05-22T09:51:29.267Z,62.72
2023-05-22T09:54:03.921Z,62.66
2023-05-22T09:56:39.606Z,63.17
2023-05-22T09:59:10.286Z,63.38
2023-05-22T10:01:40.894Z,62.56
2023-05-22T10:04:15.640Z,62.65
2023-05-22T10:06:46.962Z,62.35
2023-05-22T10:09:20.567Z,61.92
2023-05-22T10:11:53.624Z,62.42
2023-05-22T10:14:24.067Z,61.69
2023-05-22T10:16:53.715Z,61.65
2023-05-22T10:19:27.462Z,60.59
2023-05-22T10:21:57.312Z,59.94
2023-05-22T10:24:26.917Z,59.84
2023-05-22T10:26:56.264Z,60.30
2023-05-22T10:29:36.796Z,60.55
2023-05-22T10:32:19.823Z,60.04
2023-05-22T10:35:11.812Z,60.05
2023-05-22T10:37:49.754Z,60.15
2023-05-22T10:40:32.598Z,59.24
2023-05-22T10:43:04.402Z,60.52
2023-05-22T10:45:36.873Z,60.02
2023-05-22T10:48:17.464Z,60.05
2023-05-22T10:50:54.646Z,60.00
2023-05-22T10:53:25.016Z,59.91
2023-05-22T10:56:02.764Z,59.68
2023-05-22T10:58:39.143Z,59.54
2023-05-22T11:01:13.029Z,59.70
2023-05-22T11:03:57.588Z,59.37
2023-05-22T11:06:43.023Z,58.65
2023-05-22T11:09:31.543Z,57.92
2023-05-22T11:12:16.918Z,59.91
2023-05-22T11:14:50.176Z,58.68
2023-05-22T11:17:20.642Z,58.50
2023-05-22T11:20:16.258Z,58.25
2023-05-22T11:22:50.593Z,57.90
2023-05-22T11:25:22.732Z,56.45
2023-05-22T11:27:53.215Z,56.74
2023-05-22T11:30:20.970Z,56.94
2023-05-22T11:32:52.982Z,57.78
2023-05-22T11:35:24.968Z,56.38
2023-05-22T11:37:53.257Z,55.21
2023-05-22T11:40:27.188Z,55.74
2023-05-22T11:42:54.503Z,55.69
2023-05-22T11:45:29.885Z,55.22
2023-05-22T11:47:57.186Z,54.34
2023-05-22T11:50:40.306Z,54.55
2023-05-22T11:53:11.229Z,55.06
2023-05-22T11:55:46.160Z,54.93
2023-05-22T11:58:15.496Z,54.67
2023-05-22T12:00:44.894Z,54.10
2023-05-22T12:03:19.254Z,53.58
2023-05-22T12:05:51.392Z,54.21
2023-05-22T12:08:18.621Z,53.94
2023-05-22T12:10:53.158Z,53.49
2023-05-22T12:13:30.217Z,55.14
2023-05-22T12:16:03.216Z,54.98
2023-05-22T12:18:38.526Z,54.33
2023-05-22T12:23:50.429Z,52.75
2023-05-22T12:29:09.205Z,52.72
2023-05-22T12:31:40.608Z,52.33
2023-05-22T12:34:10.612Z,54.17
2023-05-22T12:36:44.265Z,53.24
2023-05-22T12:39:21.458Z,52.47
2023-05-22T12:41:57.569Z,52.28
2023-05-22T12:44:26.991Z,52.04
2023-05-22T12:46:56.331Z,52.26
2023-05-22T12:49:23.134Z,51.45
2023-05-22T12:51:57.116Z,50.96
2023-05-22T12:54:29.220Z,51.41
2023-05-22T12:57:17.910Z,50.56
2023-05-22T12:59:53.316Z,49.89
2023-05-22T13:02:20.283Z,49.02
2023-05-22T13:04:51.969Z,50.33
2023-05-22T13:07:23.853Z,49.83
2023-05-22T13:09:50.793Z,50.04
2023-05-22T13:12:20.041Z,50.78
2023-05-22T13:14:49.354Z,50.43
2023-05-22T13:17:18.547Z,50.34
2023-05-22T13:19:45.343Z,49.76
2023-05-22T13:22:20.540Z,49.68
2023-05-22T13:24:52.081Z,50.73
2023-05-22T13:27:21.295Z,49.53
2023-05-22T13:29:48.133Z,49.45
2023-05-22T13:32:19.761Z,48.42
2023-05-22T13:34:51.218Z,49.11
2023-05-22T13:37:18.890Z,47.91
2023-05-22T13:39:48.137Z,47.96
2023-05-22T13:42:20.153Z,47.52
2023-05-22T13:44:54.383Z,47.95
2023-05-22T13:47:24.002Z,46.51
2023-05-22T13:49:53.148Z,46.41
2023-05-22T13:52:22.588Z,45.75
2023-05-22T13:54:51.738Z,45.62
2023-05-22T13:57:20.932Z,45.71
2023-05-22T13:59:54.467Z,45.19
2023-05-22T14:02:28.937Z,45.39
2023-05-22T14:04:55.849Z,46.58
2023-05-22T14:07:24.902Z,46.26
2023-05-22T14:09:54.232Z,46.63
2023-05-22T14:12:25.865Z,46.43
2023-05-22T14:14:59.535Z,45.36
2023-05-22T14:17:29.061Z,46.21
2023-05-22T14:19:55.923Z,45.69
2023-05-22T14:22:25.112Z,44.68
2023-05-22T14:24:59.080Z,44.54
2023-05-22T14:27:26.395Z,44.64
2023-05-22T14:30:00.001Z,44.68
2023-05-22T14:32:29.568Z,44.74
2023-05-22T14:34:58.706Z,45.09
2023-05-22T14:37:27.838Z,44.94
2023-05-22T14:39:59.181Z,45.02
2023-05-22T14:42:28.319Z,46.07
2023-05-22T14:44:59.788Z,45.76
2023-05-22T14:47:26.792Z,45.12
2023-05-22T14:50:10.215Z,45.28
2023-05-22T14:52:45.137Z,44.51
2023-05-22T14:55:19.431Z,45.29
2023-05-22T14:57:53.268Z,45.27
2023-05-22T15:00:25.593Z,44.14
2023-05-22T15:03:02.976Z,44.31
2023-05-22T15:05:37.186Z,45.83
2023-05-22T15:08:08.980Z,45.13
2023-05-22T15:10:36.781Z,45.05
2023-05-22T15:13:11.977Z,44.66
2023-05-22T15:15:41.666Z,44.54
2023-05-22T15:18:19.992Z,43.46
2023-05-22T15:20:49.235Z,44.14
2023-05-22T15:23:25.309Z,43.08
2023-05-22T15:25:54.722Z,43.07
2023-05-22T15:28:24.607Z,44.44
2023-05-22T15:30:51.488Z,46.09
2023-05-22T15:33:21.864Z,44.47
2023-05-22T15:35:48.721Z,44.57
2023-05-22T15:38:20.484Z,43.52
2023-05-22T15:40:52.085Z,43.60
2023-05-22T15:43:22.984Z,42.96
2023-05-22T15:45:50.721Z,43.76
2023-05-22T15:48:19.863Z,43.84
2023-05-22T15:50:49.036Z,43.87
2023-05-22T15:53:19.006Z,43.49
2023-05-22T15:55:48.422Z,43.53
2023-05-22T15:58:18.241Z,44.10
2023-05-22T16:00:47.478Z,44.52
2023-05-22T16:03:15.483Z,44.17
2023-05-22T16:05:47.158Z,44.11
2023-05-22T16:08:20.874Z,44.41
2023-05-22T16:10:50.206Z,44.46
2023-05-22T16:13:22.002Z,44.40
2023-05-22T16:15:48.876Z,44.34
2023-05-22T16:18:24.089Z,44.62
2023-05-22T16:20:55.494Z,44.33
2023-05-22T16:23:24.799Z,43.92
2023-05-22T16:25:58.682Z,44.27
2023-05-22T16:28:25.601Z,44.04
2023-05-22T16:30:54.930Z,44.57
2023-05-22T16:33:21.853Z,44.47
2023-05-22T16:35:51.252Z,44.22
2023-05-22T16:38:20.421Z,44.19
2023-05-22T16:40:49.747Z,44.58
2023-05-22T16:43:21.674Z,44.19
2023-05-22T16:45:51.330Z,44.62
2023-05-22T16:48:23.501Z,44.01
2023-05-22T16:50:50.372Z,44.28
2023-05-22T16:53:19.914Z,44.36
2023-05-22T16:55:49.046Z,43.75
2023-05-22T16:58:15.919Z,44.45
2023-05-22T17:00:47.841Z,44.36
2023-05-22T17:03:19.907Z,44.66
2023-05-22T17:05:54.269Z,44.23
2023-05-22T17:08:23.542Z,44.43
2023-05-22T17:10:57.694Z,44.62
2023-05-22T17:13:29.662Z,44.36
2023-05-22T17:15:56.695Z,44.35
2023-05-22T17:18:25.943Z,44.92
2023-05-22T17:20:57.974Z,44.53
2023-05-22T17:23:24.800Z,44.77
2023-05-22T17:25:51.728Z,45.22
2023-05-22T17:28:18.672Z,44.95
2023-05-22T17:30:48.416Z,45.40
2023-05-22T17:33:15.418Z,45.08
2023-05-22T17:35:44.688Z,44.89
2023-05-22T17:38:16.223Z,45.39
2023-05-22T17:40:46.351Z,45.64
2023-05-22T17:43:19.131Z,45.41
2023-05-22T17:45:54.651Z,46.04
2023-05-22T17:48:27.348Z,45.86
2023-05-22T17:50:56.899Z,46.79
2023-05-22T17:53:23.750Z,47.21
2023-05-22T17:55:55.586Z,47.13
2023-05-22T17:58:30.291Z,47.40
2023-05-22T18:00:57.217Z,47.21
2023-05-22T18:03:24.143Z,47.70
2023-05-22T18:05:51.496Z,47.69
2023-05-22T18:08:21.842Z,47.91
2023-05-22T18:10:55.923Z,47.95
2023-05-22T18:13:22.938Z,48.69
2023-05-22T18:15:52.092Z,49.27
2023-05-22T18:18:22.683Z,49.79
2023-05-22T18:20:57.323Z,50.11
2023-05-22T18:23:31.371Z,50.53
2023-05-22T18:26:03.676Z,50.91
2023-05-22T18:28:35.955Z,51.64
2023-05-22T18:31:02.839Z,51.80
2023-05-22T18:33:29.711Z,52.19
2023-05-22T18:35:57.464Z,52.35
2023-05-22T18:38:34.187Z,52.40
2023-05-22T18:41:03.578Z,52.53
2023-05-22T18:43:33.096Z,52.87
2023-05-22T18:45:59.982Z,53.07
2023-05-22T18:48:31.057Z,53.41
2023-05-22T18:51:05.463Z,51.95
2023-05-22T18:53:37.319Z,52.19
2023-05-22T18:56:06.766Z,53.13
2023-05-22T18:58:41.532Z,53.21
2023-05-22T19:01:08.648Z,53.83
2023-05-22T19:03:40.688Z,54.01
2023-05-22T19:06:09.864Z,53.99
2023-05-22T19:08:38.990Z,53.99
2023-05-22T19:11:08.463Z,53.99
2023-05-22T19:13:41.439Z,54.56
2023-05-22T19:16:13.402Z,54.31
2023-05-22T19:18:40.391Z,54.69
2023-05-22T19:21:11.919Z,55.09
2023-05-22T19:23:43.606Z,55.55
2023-05-22T19:26:10.498Z,55.42
2023-05-22T19:28:42.000Z,55.90
2023-05-22T19:31:13.526Z,55.88
2023-05-22T19:33:42.757Z,55.78
2023-05-22T19:36:09.642Z,55.90
2023-05-22T19:38:43.307Z,55.96
2023-05-22T19:41:13.207Z,56.70
2023-05-22T19:43:43.794Z,56.94
2023-05-22T19:46:11.011Z,56.77
2023-05-22T19:48:38.108Z,56.68
2023-05-22T19:51:08.865Z,56.54
2023-05-22T19:53:37.670Z,56.07
2023-05-22T19:56:07.088Z,55.98
2023-05-22T19:58:34.182Z,56.00
2023-05-22T20:01:03.534Z,56.77
2023-05-22T20:03:35.733Z,56.76
2023-05-22T20:06:03.222Z,55.44
2023-05-22T20:08:32.244Z,54.80
2023-05-22T20:10:59.114Z,55.06
2023-05-22T20:13:30.871Z,55.21
2023-05-22T20:16:03.647Z,55.84
2023-05-22T20:18:35.910Z,56.32
2023-05-22T20:21:08.251Z,56.42
2023-05-22T20:23:44.822Z,56.44
2023-05-22T20:26:16.285Z,56.78
2023-05-22T20:28:51.025Z,56.89
2023-05-22T20:31:22.570Z,57.21
2023-05-22T20:33:59.269Z,57.41
2023-05-22T20:36:28.486Z,57.54
2023-05-22T20:39:00.108Z,57.39
2023-05-22T20:41:31.987Z,57.59
2023-05-22T20:44:03.886Z,58.07
2023-05-22T20:46:35.650Z,58.07
2023-05-22T20:49:09.499Z,58.45
2023-05-22T20:51:36.900Z,57.58
2023-05-22T20:54:06.438Z,58.14
2023-05-22T20:56:33.324Z,58.48
2023-05-22T20:59:02.536Z,58.53
2023-05-22T21:01:32.633Z,58.75
2023-05-22T21:04:04.052Z,58.74
2023-05-22T21:06:31.806Z,58.87
2023-05-22T21:09:01.841Z,59.01
2023-05-22T21:11:30.994Z,59.49
2023-05-22T21:14:02.485Z,59.71
2023-05-22T21:16:29.333Z,59.68
2023-05-22T21:19:01.273Z,60.03
2023-05-22T21:21:28.234Z,60.02
2023-05-22T21:23:57.275Z,60.37
2023-05-22T21:26:26.558Z,60.42
2023-05-22T21:29:00.905Z,60.68
2023-05-22T21:31:28.060Z,60.77
2023-05-22T21:34:04.658Z,60.70
2023-05-22T21:36:34.868Z,61.05
2023-05-22T21:39:02.700Z,61.10
2023-05-22T21:41:31.965Z,61.40
2023-05-22T21:44:01.323Z,61.57
2023-05-22T21:46:30.800Z,61.56
2023-05-22T21:49:03.223Z,61.74
2023-05-22T21:51:32.807Z,61.89
2023-05-22T21:54:02.093Z,62.53
2023-05-22T21:56:35.983Z,62.41
2023-05-22T21:59:05.377Z,62.63
2023-05-22T22:01:37.094Z,62.88
2023-05-22T22:04:09.029Z,62.84
2023-05-22T22:06:39.438Z,62.92
2023-05-22T22:09:11.076Z,63.34
2023-05-22T22:11:40.639Z,63.33
2023-05-22T22:14:09.733Z,63.18
2023-05-22T22:16:44.588Z,63.41
2023-05-22T22:19:15.925Z,63.29
2023-05-22T22:21:45.707Z,63.41
2023-05-22T22:24:13.329Z,63.54
2023-05-22T22:26:47.977Z,63.91
2023-05-22T22:29:17.015Z,63.83
2023-05-22T22:31:44.156Z,63.77
2023-05-22T22:34:13.093Z,63.90
2023-05-22T22:36:47.581Z,64.03
2023-05-22T22:39:16.888Z,64.18
2023-05-22T22:41:48.732Z,64.08
2023-05-22T22:44:20.625Z,63.96
2023-05-22T22:46:47.470Z,64.11
2023-05-22T22:49:14.353Z,64.65
2023-05-22T22:51:43.784Z,64.38
2023-05-22T22:54:15.376Z,64.33
2023-05-22T22:56:50.023Z,64.26
2023-05-22T22:59:19.392Z,64.42
2023-05-22T23:01:46.262Z,64.31
2023-05-22T23:04:15.999Z,64.64
2023-05-22T23:06:46.320Z,63.92
2023-05-22T23:09:16.171Z,63.98
2023-05-22T23:11:47.696Z,63.54
2023-05-22T23:14:18.004Z,63.72
2023-05-22T23:16:47.315Z,63.63
2023-05-22T23:19:16.768Z,64.21
2023-05-22T23:21:48.010Z,64.13
2023-05-22T23:24:19.708Z,64.50
2023-05-22T23:26:49.537Z,64.13
2023-05-22T23:29:18.614Z,64.36
2023-05-22T23:31:50.780Z,64.26
2023-05-22T23:34:17.759Z,64.18
2023-05-22T23:36:49.459Z,64.39
2023-05-22T23:39:26.977Z,64.66
2023-05-22T23:41:55.991Z,64.55
2023-05-22T23:44:25.463Z,64.64
2023-05-22T23:46:54.866Z,64.33
2023-05-22T23:49:22.407Z,64.34
2023-05-22T23:51:55.964Z,64.08
2023-05-22T23:54:30.297Z,64.19
2023-05-22T23:57:04.923Z,64.09
2023-05-22T23:59:33.856Z,64.20
